KRVS/RVS METAR and TAF weather

Enter ICAO airport designator
Station Type Date Time Source
KRVS METAR 2019/10/22 15:53 UTC NOAA

KRVS 221553Z VRB06KT 10SM CLR 15/02 A3018 RMK AO2 SLP224 T01500017


Station Type Date Time Source
KRVS Decoded METAR 2019/10/22 15:53 UTC NOAA

TULSA JONES JR. AIRPORT, OK, United States (KRVS) 36-03N 095-59W 200M
Oct 22, 2019 - 11:53 AM EDT / 2019.10.22 1553 UTC
Wind: Variable at 7 MPH (6 KT):0
Visibility: 10 mile(s):0
Sky conditions: clear
Temperature: 59.0 F (15.0 C)
Dew Point: 35.1 F (1.7 C)
Relative Humidity: 40%
Pressure (altimeter): 30.18 in. Hg (1022 hPa)
ob: KRVS 221553Z VRB06KT 10SM CLR 15/02 A3018 RMK AO2 SLP224 T01500017
cycle: 16

Station Type Date Time Source
KRVS TAF 2019/10/22 12:22 UTC NOAA

TAF KRVS 221120Z 2212/2312 27008KT P6SM SCT250
FM230000 19003KT P6SM SKC

Example: see airport list